Time;durP1;ratioP1;P1;durP2;ratioP2;P2;SDS_P1;SDS_P2;PMS_P1;PMS_P2;Temp;Humidity;BMP_temperature;BMP_pressure;BME280_temperature;BME280_humidity;BME280_pressure;Samples;Min_cycle;Max_cycle;Signal;HPM_P1;HPM_P2
2022/11/24 00:01:32;;;;;;;8.65;3.10;;;;;;;9.13;50.55;92801.41;5070437;28;20120;-76
2022/11/24 00:04:00;;;;;;;5.80;3.10;;;;;;;8.74;51.03;92746.25;5072635;28;20040;-76
2022/11/24 00:06:27;;;;;;;13.68;6.25;;;;;;;9.01;50.62;92794.16;5071546;28;20020;-77
2022/11/24 00:08:53;;;;;;;33.17;12.13;;;;;;;9.02;51.06;92806.31;5071366;28;20613;-76
2022/11/24 00:11:22;;;;;;;32.13;12.38;;;;;;;8.59;51.20;92751.06;5074200;28;20040;-76
2022/11/24 00:13:49;;;;;;;25.63;9.35;;;;;;;8.70;51.52;92790.41;5077217;28;20043;-76
2022/11/24 00:16:15;;;;;;;28.67;11.68;;;;;;;8.73;51.92;92803.78;5074981;28;20508;-76
2022/11/24 00:18:44;;;;;;;31.77;11.70;;;;;;;8.68;52.21;92795.25;5075042;28;20755;-75
2022/11/24 00:21:09;;;;;;;18.88;7.90;;;;;;;8.71;51.91;92799.91;5073690;28;20041;-76
2022/11/24 00:23:35;;;;;;;21.33;8.50;;;;;;;8.78;51.93;92805.47;5075473;28;20266;-75
2022/11/24 00:26:05;;;;;;;15.35;6.50;;;;;;;8.81;51.82;92805.56;5074691;28;20039;-75
2022/11/24 00:28:32;;;;;;;16.70;5.22;;;;;;;8.27;52.38;92780.13;5074834;28;20597;-76
2022/11/24 00:30:57;;;;;;;33.22;10.10;;;;;;;8.49;52.59;92808.97;5076164;28;20097;-76
2022/11/24 00:33:23;;;;;;;14.70;4.55;;;;;;;8.41;52.73;92815.13;5075005;28;20024;-75
2022/11/24 00:35:59;;;;;;;37.90;13.20;;;;;;;8.28;52.71;92787.78;5077304;28;20027;-76
2022/11/24 00:38:25;;;;;;;29.92;9.15;;;;;;;8.41;52.54;92796.56;5082518;28;20036;-76
2022/11/24 00:40:51;;;;;;;27.13;8.27;;;;;;;8.53;52.32;92810.66;5074444;28;20055;-76
2022/11/24 00:43:17;;;;;;;67.82;20.35;;;;;;;8.58;52.14;92807.03;5072056;28;20051;-76
2022/11/24 00:45:43;;;;;;;55.72;16.70;;;;;;;8.46;52.26;92791.84;5084007;28;20068;-76
2022/11/24 00:48:08;;;;;;;38.75;13.93;;;;;;;8.52;52.50;92793.19;5075637;28;20431;-77
2022/11/24 00:50:34;;;;;;;17.52;5.53;;;;;;;8.61;52.52;92813.56;5075104;28;20040;-76
2022/11/24 00:53:00;;;;;;;19.98;6.65;;;;;;;8.36;53.30;92825.91;5077390;28;20498;-77
2022/11/24 00:55:26;;;;;;;6.50;3.20;;;;;;;8.13;53.70;92820.13;5071280;28;20476;-76
2022/11/24 00:57:52;;;;;;;4.43;2.35;;;;;;;8.14;53.33;92801.28;5075829;28;20028;-76
2022/11/24 01:00:17;;;;;;;11.50;3.45;;;;;;;8.29;53.11;92807.88;5073575;28;20031;-75
2022/11/24 01:02:43;;;;;;;4.57;2.00;;;;;;;8.27;53.12;92788.88;5073497;28;20033;-76
2022/11/24 01:05:09;;;;;;;6.32;2.45;;;;;;;8.17;53.24;92773.34;5073669;28;20040;-76
2022/11/24 01:07:34;;;;;;;5.55;2.58;;;;;;;8.36;53.25;92818.75;5072019;28;20392;-76
2022/11/24 01:10:00;;;;;;;10.38;2.72;;;;;;;8.39;53.24;92820.72;5071769;28;20032;-77
2022/11/24 01:12:25;;;;;;;4.82;3.00;;;;;;;8.47;53.67;92822.53;5073020;28;20467;-76
2022/11/24 01:14:51;;;;;;;4.80;2.20;;;;;;;8.44;53.59;92809.16;5074303;28;20451;-77
2022/11/24 01:17:16;;;;;;;2.58;1.58;;;;;;;8.48;53.54;92813.50;5074013;28;20514;-75
2022/11/24 01:19:42;;;;;;;3.97;1.52;;;;;;;8.49;53.73;92804.44;5073921;28;20372;-74
2022/11/24 01:22:07;;;;;;;4.75;2.20;;;;;;;8.63;53.50;92809.47;5075292;28;20107;-75
2022/11/24 01:24:32;;;;;;;3.85;1.50;;;;;;;8.66;53.60;92818.69;5071469;28;20020;-75
2022/11/24 01:26:58;;;;;;;3.92;1.83;;;;;;;8.65;53.23;92825.84;5074236;28;20111;-75
2022/11/24 01:29:24;;;;;;;3.53;1.88;;;;;;;8.57;53.65;92819.50;5073752;28;20496;-76
2022/11/24 01:31:50;;;;;;;6.85;2.63;;;;;;;8.68;53.63;92827.06;5071942;28;20390;-76
2022/11/24 01:34:15;;;;;;;3.58;1.90;;;;;;;8.45;53.81;92806.19;5071968;28;20024;-75
2022/11/24 01:36:41;;;;;;;4.25;1.95;;;;;;;8.44;53.93;92787.97;5069696;28;20744;-75
2022/11/24 01:39:06;;;;;;;5.97;1.90;;;;;;;8.56;53.86;92790.66;5075049;28;20284;-75
2022/11/24 01:41:33;;;;;;;4.57;2.30;;;;;;;8.30;54.53;92816.59;5072716;28;20060;-75
2022/11/24 01:43:58;;;;;;;5.57;1.88;;;;;;;8.14;55.18;92808.44;5071951;28;20036;-75
2022/11/24 01:46:30;;;;;;;2.70;2.30;;;;;;;8.42;54.87;92830.69;5072831;28;20028;-75
2022/11/24 01:49:07;;;;;;;8.02;1.80;;;;;;;8.53;55.00;92831.84;5073439;28;20490;-75
2022/11/24 01:51:35;;;;;;;3.67;1.92;;;;;;;8.59;54.84;92822.63;5083264;28;20051;-76
2022/11/24 01:54:29;;;;;;;3.17;2.17;;;;;;;8.61;54.70;92809.03;5075241;28;20045;-75
2022/11/24 01:56:59;;;;;;;3.90;2.15;;;;;;;8.59;54.83;92803.28;5072446;28;20034;-76
2022/11/24 01:59:25;;;;;;;4.70;2.22;;;;;;;8.66;54.68;92800.13;5075206;28;20033;-75
2022/11/24 02:01:52;;;;;;;5.35;2.20;;;;;;;8.70;54.39;92793.84;5072554;28;20070;-75
2022/11/24 02:04:24;;;;;;;3.80;1.92;;;;;;;8.84;54.19;92804.16;5073085;28;20047;-75
2022/11/24 02:06:51;;;;;;;9.02;2.92;;;;;;;8.83;54.36;92803.38;5071104;28;20411;-75
2022/11/24 02:09:28;;;;;;;3.00;1.95;;;;;;;9.01;53.95;92825.97;5073781;28;20496;-76
2022/11/24 02:11:55;;;;;;;4.65;2.22;;;;;;;8.90;53.74;92802.88;5073217;28;20036;-75
2022/11/24 02:14:22;;;;;;;6.57;2.90;;;;;;;9.00;54.01;92802.44;5074059;28;20349;-76
2022/11/24 02:16:49;;;;;;;1.85;1.45;;;;;;;8.98;53.85;92799.34;5073796;28;20111;-75
2022/11/24 02:19:33;;;;;;;3.13;1.58;;;;;;;9.13;53.71;92822.63;5072692;28;20431;-75
2022/11/24 02:22:00;;;;;;;3.70;2.08;;;;;;;9.18;53.72;92824.31;5075466;28;20045;-75
2022/11/24 02:24:48;;;;;;;3.50;1.73;;;;;;;9.22;53.50;92831.28;5072158;28;20055;-76
2022/11/24 02:27:13;;;;;;;2.90;1.95;;;;;;;9.06;53.64;92806.44;5073435;28;20024;-76
2022/11/24 02:29:40;;;;;;;3.97;1.80;;;;;;;9.03;53.71;92804.44;5072128;28;20051;-75
2022/11/24 02:32:07;;;;;;;4.95;2.22;;;;;;;9.26;53.96;92832.16;5071082;28;20522;-75
2022/11/24 02:34:33;;;;;;;2.50;2.13;;;;;;;9.28;53.86;92827.31;5072925;28;20536;-75
2022/11/24 02:36:58;;;;;;;2.33;1.65;;;;;;;9.27;53.73;92825.75;5072268;28;20040;-75
2022/11/24 02:39:24;;;;;;;2.15;1.73;;;;;;;9.25;53.67;92830.63;5072062;28;20050;-76
2022/11/24 02:41:54;;;;;;;2.38;1.80;;;;;;;9.30;53.29;92830.41;5070609;28;20476;-75
2022/11/24 02:44:23;;;;;;;3.80;2.30;;;;;;;9.18;53.54;92822.44;5072201;28;20120;-76
2022/11/24 02:46:49;;;;;;;3.30;1.85;;;;;;;9.12;53.19;92809.69;5073774;28;20037;-75
2022/11/24 02:49:15;;;;;;;4.60;1.65;;;;;;;9.22;53.50;92825.97;5074054;28;20043;-75
2022/11/24 02:51:40;;;;;;;1.77;1.55;;;;;;;9.23;53.40;92830.19;5073181;28;20028;-75
2022/11/24 02:54:05;;;;;;;5.15;1.55;;;;;;;9.22;53.36;92831.28;5079949;28;20031;-75
2022/11/24 02:56:31;;;;;;;3.28;1.55;;;;;;;9.24;53.52;92839.66;5072399;28;20151;-76
2022/11/24 02:58:56;;;;;;;2.83;1.40;;;;;;;9.25;53.67;92830.63;5073100;28;20118;-75
2022/11/24 03:01:21;;;;;;;3.45;1.70;;;;;;;9.26;53.64;92826.09;5071759;28;20033;-76
2022/11/24 03:03:47;;;;;;;4.47;1.80;;;;;;;9.07;53.72;92813.28;5069835;28;20032;-76
2022/11/24 03:06:12;;;;;;;3.65;1.65;;;;;;;9.24;53.85;92834.34;5074540;28;20026;-75
2022/11/24 03:08:38;;;;;;;2.88;1.65;;;;;;;9.16;53.83;92821.97;5074037;28;20059;-76
2022/11/24 03:11:03;;;;;;;3.10;1.48;;;;;;;9.14;53.45;92813.56;5072261;28;20069;-75
2022/11/24 03:13:29;;;;;;;2.78;1.92;;;;;;;9.19;53.47;92837.25;5069135;28;20557;-75
2022/11/24 03:15:54;;;;;;;4.50;2.03;;;;;;;9.06;53.72;92813.63;5072355;28;20033;-75
2022/11/24 03:18:19;;;;;;;4.43;2.30;;;;;;;9.23;53.80;92848.75;5073412;28;20032;-76
2022/11/24 03:20:45;;;;;;;6.53;2.88;;;;;;;9.23;54.07;92840.78;5072758;28;20040;-75
2022/11/24 03:23:10;;;;;;;3.20;1.88;;;;;;;9.25;53.94;92843.88;5071083;28;20519;-75
2022/11/24 03:25:35;;;;;;;4.25;2.38;;;;;;;9.03;53.87;92815.06;5069677;28;20099;-75
2022/11/24 03:28:01;;;;;;;4.88;2.83;;;;;;;9.24;54.27;92847.63;5073602;28;20089;-75
2022/11/24 03:30:27;;;;;;;5.13;2.55;;;;;;;9.16;53.99;92840.53;5073805;28;20115;-75
2022/11/24 03:32:53;;;;;;;2.70;2.42;;;;;;;9.23;54.13;92850.63;5079113;28;20039;-75
2022/11/24 03:35:19;;;;;;;3.38;2.67;;;;;;;9.21;53.86;92858.91;5068483;28;20036;-76
2022/11/24 03:37:45;;;;;;;8.25;2.85;;;;;;;9.13;53.93;92851.03;5072415;28;20508;-75
2022/11/24 03:40:10;;;;;;;8.07;2.67;;;;;;;9.26;54.34;92868.53;5074147;28;20040;-75
2022/11/24 03:42:35;;;;;;;3.78;3.13;;;;;;;9.17;54.06;92865.97;5071732;28;20038;-76
2022/11/24 03:45:01;;;;;;;5.10;2.95;;;;;;;9.17;54.00;92871.28;5074952;28;20024;-75
2022/11/24 03:47:27;;;;;;;8.57;3.40;;;;;;;9.22;53.98;92873.72;5079026;28;20165;-75
2022/11/24 03:49:52;;;;;;;8.82;5.25;;;;;;;9.08;54.42;92856.50;5075812;28;20131;-75
2022/11/24 03:52:17;;;;;;;9.02;4.70;;;;;;;9.23;54.08;92874.50;5075936;28;20039;-76
2022/11/24 03:54:43;;;;;;;6.85;4.60;;;;;;;9.13;54.00;92859.78;5076904;28;20123;-76
2022/11/24 03:57:08;;;;;;;10.95;5.40;;;;;;;8.71;53.82;92803.31;5072968;28;20032;-75
2022/11/24 03:59:33;;;;;;;6.15;4.20;;;;;;;9.12;54.05;92860.88;5076395;28;20115;-76
2022/11/24 04:01:59;;;;;;;8.27;4.85;;;;;;;8.99;54.34;92867.19;5071830;28;20036;-75
2022/11/24 04:04:24;;;;;;;9.60;4.00;;;;;;;9.12;54.17;92882.09;5077022;28;20359;-75
2022/11/24 04:06:50;;;;;;;6.35;4.43;;;;;;;9.09;54.29;92874.75;5075546;28;20547;-75
2022/11/24 04:09:15;;;;;;;7.35;4.68;;;;;;;9.11;54.53;92891.13;5075736;28;20020;-75
2022/11/24 04:14:25;;;;;;;11.23;6.20;;;;;;;8.87;54.67;92872.44;5074602;28;20570;-76
2022/11/24 04:16:50;;;;;;;9.38;6.25;;;;;;;8.88;54.62;92881.94;5074286;28;20143;-75
2022/11/24 04:19:15;;;;;;;11.43;5.32;;;;;;;8.88;54.91;92887.25;5074022;28;20032;-76
2022/11/24 04:21:41;;;;;;;15.10;6.15;;;;;;;8.78;55.19;92900.91;5072360;28;20523;-76
2022/11/24 04:24:06;;;;;;;12.10;6.65;;;;;;;8.44;55.10;92849.69;5074556;28;20472;-76
2022/11/24 04:26:32;;;;;;;10.80;6.30;;;;;;;8.95;54.95;92924.66;5076661;28;20042;-75
2022/11/24 04:28:57;;;;;;;8.07;6.00;;;;;;;8.83;55.04;92929.88;5073149;28;20123;-75
2022/11/24 04:31:22;;;;;;;11.77;6.63;;;;;;;8.74;55.29;92911.38;5074694;28;20565;-75
2022/11/24 04:33:48;;;;;;;9.77;5.97;;;;;;;8.88;55.06;92921.72;5073998;28;20101;-76
2022/11/24 04:36:13;;;;;;;11.32;6.78;;;;;;;8.93;55.25;92924.19;5075010;28;20028;-76
2022/11/24 04:38:38;;;;;;;9.82;6.80;;;;;;;8.80;54.97;92902.13;5073770;28;20415;-75
2022/11/24 04:41:04;;;;;;;12.68;7.22;;;;;;;8.78;54.83;92906.19;5073803;28;20131;-75
2022/11/24 04:43:31;;;;;;;11.95;6.15;;;;;;;8.81;55.36;92924.09;5074699;28;20047;-75
2022/11/24 04:46:00;;;;;;;10.65;6.60;;;;;;;8.81;55.94;92932.06;5074047;28;20039;-75
2022/11/24 04:48:25;;;;;;;12.32;6.35;;;;;;;8.83;55.77;92922.69;5075084;28;20035;-75
2022/11/24 04:50:50;;;;;;;8.55;5.30;;;;;;;8.84;55.47;92928.78;5075013;28;20028;-76
2022/11/24 04:53:16;;;;;;;9.35;5.80;;;;;;;8.75;55.75;92923.53;5073526;28;20046;-75
2022/11/24 04:55:41;;;;;;;7.45;4.57;;;;;;;8.71;55.80;92908.56;5074183;28;20040;-75
2022/11/24 04:58:10;;;;;;;9.20;4.50;;;;;;;8.78;56.17;92928.19;5074147;28;20066;-75
2022/11/24 05:00:36;;;;;;;10.68;5.35;;;;;;;8.87;55.96;92936.06;5073094;28;20031;-75
2022/11/24 05:03:02;;;;;;;8.70;3.92;;;;;;;8.79;55.80;92908.53;5074945;28;20024;-75
2022/11/24 05:05:28;;;;;;;8.90;4.25;;;;;;;8.96;55.82;92934.91;5072651;28;20504;-75
2022/11/24 05:07:53;;;;;;;6.55;3.53;;;;;;;8.85;55.80;92917.81;5073360;28;20111;-75
2022/11/24 05:10:34;;;;;;;5.55;3.55;;;;;;;9.06;55.58;92938.25;5073228;28;20270;-75
2022/11/24 05:12:59;;;;;;;4.47;3.20;;;;;;;8.87;55.56;92912.22;5074242;28;20033;-75
2022/11/24 05:15:25;;;;;;;7.65;4.63;;;;;;;9.11;55.40;92936.22;5073920;28;20103;-75
2022/11/24 05:17:51;;;;;;;6.35;3.33;;;;;;;9.14;55.52;92943.56;5073980;28;20075;-77
2022/11/24 05:20:17;;;;;;;5.10;3.40;;;;;;;9.18;55.45;92938.38;5073401;28;20584;-76
2022/11/24 05:22:43;;;;;;;5.45;3.03;;;;;;;9.20;55.19;92936.16;5074037;28;20025;-75
2022/11/24 05:25:08;;;;;;;5.18;3.60;;;;;;;9.10;55.44;92921.38;5073952;28;20540;-75
2022/11/24 05:27:34;;;;;;;5.05;3.58;;;;;;;9.13;55.13;92917.34;5071393;28;20016;-75
2022/11/24 05:29:59;;;;;;;5.53;3.75;;;;;;;9.28;55.44;92952.03;5073588;28;20036;-76
2022/11/24 05:32:25;;;;;;;9.52;5.45;;;;;;;9.23;55.47;92959.41;5074115;28;20048;-75
2022/11/24 05:34:51;;;;;;;10.73;5.45;;;;;;;9.25;55.67;92952.66;5072011;28;20078;-75
2022/11/24 05:37:17;;;;;;;19.92;7.55;;;;;;;9.23;55.55;92954.88;5073831;28;20033;-76
2022/11/24 05:39:42;;;;;;;19.20;10.23;;;;;;;9.31;55.31;92964.63;5071544;28;20036;-75
2022/11/24 05:44:52;;;;;;;20.88;10.48;;;;;;;9.15;55.43;92946.97;5073570;28;20064;-75
2022/11/24 05:47:18;;;;;;;10.52;6.80;;;;;;;9.21;55.84;92967.66;5073423;28;20041;-75
2022/11/24 05:49:43;;;;;;;6.22;4.20;;;;;;;9.19;55.82;92969.88;5071997;28;20042;-76
2022/11/24 05:52:10;;;;;;;6.97;3.70;;;;;;;9.15;55.70;92974.25;5072600;28;20499;-76
2022/11/24 05:54:35;;;;;;;4.20;2.83;;;;;;;9.11;55.75;92961.94;5075004;28;20027;-75
2022/11/24 05:57:01;;;;;;;6.70;3.38;;;;;;;9.08;55.64;92947.47;5073018;28;20024;-75
2022/11/24 05:59:26;;;;;;;8.32;3.50;;;;;;;9.09;55.41;92943.72;5071087;28;20035;-76
2022/11/24 06:01:52;;;;;;;6.95;3.03;;;;;;;9.08;55.36;92944.81;5068707;28;20057;-75
2022/11/24 06:04:17;;;;;;;3.70;2.40;;;;;;;9.28;55.62;92975.91;5070829;28;20247;-76
2022/11/24 06:06:42;;;;;;;7.13;2.60;;;;;;;9.28;55.66;92975.91;5070102;28;20543;-75
2022/11/24 06:09:08;;;;;;;4.45;3.28;;;;;;;9.12;55.70;92953.69;5069706;28;20070;-76
2022/11/24 06:11:33;;;;;;;4.38;2.72;;;;;;;9.27;55.72;92976.22;5069465;28;20522;-75
2022/11/24 06:13:59;;;;;;;4.80;3.20;;;;;;;9.15;56.06;92979.56;5070854;28;20100;-74
2022/11/24 06:16:24;;;;;;;3.58;2.35;;;;;;;9.10;56.35;92969.13;5074068;28;20492;-76
2022/11/24 06:18:49;;;;;;;3.90;2.17;;;;;;;9.19;56.27;92974.41;5073590;28;20063;-75
2022/11/24 06:21:16;;;;;;;4.68;2.95;;;;;;;9.23;56.33;92981.41;5071981;28;20411;-76
2022/11/24 06:23:41;;;;;;;8.00;4.05;;;;;;;9.12;56.34;92969.63;5069678;28;20035;-76
2022/11/24 06:26:08;;;;;;;10.02;4.72;;;;;;;9.20;56.12;92983.91;5072904;28;20481;-75
2022/11/24 06:28:33;;;;;;;6.13;4.00;;;;;;;9.25;56.11;92995.09;5065914;28;20062;-75
2022/11/24 06:31:01;;;;;;;6.15;4.55;;;;;;;9.32;56.41;93005.22;5061584;28;20040;-76
2022/11/24 06:33:32;;;;;;;10.40;4.10;;;;;;;9.33;56.81;93002.25;5067434;28;20032;-76
2022/11/24 06:36:04;;;;;;;11.18;4.30;;;;;;;9.38;56.68;93010.00;5067216;28;20066;-75
2022/11/24 06:38:30;;;;;;;10.65;4.90;;;;;;;9.42;56.55;93016.22;5065664;28;20040;-75
2022/11/24 06:41:06;;;;;;;9.20;4.80;;;;;;;9.44;56.36;93019.31;5063866;28;20035;-76
2022/11/24 06:43:34;;;;;;;9.80;6.30;;;;;;;9.41;56.58;93009.34;5063820;28;20070;-75
2022/11/24 06:46:06;;;;;;;16.38;5.80;;;;;;;9.42;56.71;93010.91;5081981;28;20052;-75
2022/11/24 06:48:32;;;;;;;18.17;8.50;;;;;;;9.40;56.32;93014.97;5068360;28;20532;-75
2022/11/24 06:50:58;;;;;;;13.77;8.50;;;;;;;9.58;56.35;93047.47;5067307;28;20155;-76
2022/11/24 06:53:24;;;;;;;16.38;8.38;;;;;;;9.54;56.27;93041.25;5065228;28;20332;-76
2022/11/24 06:55:50;;;;;;;11.88;8.13;;;;;;;9.54;56.15;93044.66;5066298;28;20063;-76
2022/11/24 06:58:15;;;;;;;14.40;8.57;;;;;;;8.27;55.25;92860.38;5067814;28;20036;-75
2022/11/24 07:00:41;;;;;;;14.10;8.40;;;;;;;9.63;55.02;93060.56;5070040;28;20036;-75
2022/11/24 07:03:14;;;;;;;19.58;10.32;;;;;;;9.41;55.20;93035.88;5070362;28;20016;-75
2022/11/24 07:05:39;;;;;;;22.85;9.77;;;;;;;9.39;55.38;93034.63;5069609;28;20043;-76
2022/11/24 07:08:05;;;;;;;16.20;9.25;;;;;;;9.56;55.31;93061.06;5082145;28;20028;-76
2022/11/24 07:10:30;;;;;;;19.52;12.63;;;;;;;9.54;55.54;93059.81;5069511;28;20036;-75
2022/11/24 07:12:55;;;;;;;18.67;10.95;;;;;;;9.67;55.25;93088.78;5070350;28;21370;-75
2022/11/24 07:15:21;;;;;;;24.85;13.55;;;;;;;9.37;55.51;93042.94;5068017;28;20435;-78
2022/11/24 07:17:46;;;;;;;31.73;13.07;;;;;;;9.58;55.41;93082.75;5079218;28;20024;-76
2022/11/24 07:20:12;;;;;;;25.90;13.20;;;;;;;9.40;55.98;93065.38;5072464;28;20067;-77
2022/11/24 07:22:37;;;;;;;23.52;12.43;;;;;;;9.30;55.73;93092.31;5076582;28;20154;-77
2022/11/24 07:25:06;;;;;;;13.45;9.68;;;;;;;8.88;56.50;93097.50;5076025;28;20093;-74
2022/11/24 07:27:32;;;;;;;15.65;9.93;;;;;;;8.80;57.18;93094.91;5079062;28;20292;-76
2022/11/24 07:29:58;;;;;;;15.75;8.40;;;;;;;8.87;56.66;93095.16;5077967;28;20063;-75
2022/11/24 07:32:23;;;;;;;14.82;7.30;;;;;;;8.82;56.47;93068.81;5078039;28;20153;-74
2022/11/24 07:34:48;;;;;;;11.23;6.43;;;;;;;9.01;56.35;93090.41;5072433;28;20032;-75
2022/11/24 07:37:14;;;;;;;14.27;8.20;;;;;;;8.81;55.98;93070.69;5076501;28;20028;-75
2022/11/24 07:39:39;;;;;;;11.90;8.25;;;;;;;8.86;55.91;93104.22;5073946;28;20460;-76
2022/11/24 07:42:05;;;;;;;10.65;7.43;;;;;;;8.78;56.03;93113.75;5078242;28;20020;-75
2022/11/24 07:44:31;;;;;;;10.50;6.45;;;;;;;8.69;56.11;93088.38;5074203;28;20536;-74
2022/11/24 07:46:56;;;;;;;13.18;6.50;;;;;;;8.87;56.13;93116.38;5073760;28;20032;-74
2022/11/24 07:49:22;;;;;;;13.40;7.22;;;;;;;8.94;56.25;93119.31;5076276;28;20047;-74
2022/11/24 07:51:47;;;;;;;11.10;7.30;;;;;;;8.79;56.35;93106.59;5075944;28;20032;-74
2022/11/24 07:54:13;;;;;;;15.02;7.45;;;;;;;8.74;56.53;93135.94;5080241;28;20039;-75
2022/11/24 07:56:38;;;;;;;12.25;7.70;;;;;;;8.75;57.03;93126.88;5076054;28;20124;-75
2022/11/24 07:59:04;;;;;;;21.42;14.00;;;;;;;8.40;57.58;93144.75;5076990;28;20036;-73
2022/11/24 08:01:29;;;;;;;19.45;12.13;;;;;;;8.37;58.23;93151.44;5077567;28;20376;-75
2022/11/24 08:03:55;;;;;;;14.27;9.50;;;;;;;8.31;58.50;93142.13;5075190;28;20090;-77
2022/11/24 08:06:20;;;;;;;14.30;9.23;;;;;;;8.33;58.36;93155.81;5076657;28;20054;-77
2022/11/24 08:08:46;;;;;;;11.25;7.40;;;;;;;7.99;59.48;93161.16;5074007;28;20423;-74
2022/11/24 08:11:14;;;;;;;11.25;8.68;;;;;;;7.96;59.34;93151.97;5076631;28;20499;-73
2022/11/24 08:13:40;;;;;;;12.15;8.30;;;;;;;7.68;59.59;93137.44;5077505;28;20028;-77
2022/11/24 08:16:07;;;;;;;10.68;7.22;;;;;;;7.73;60.08;93169.84;5076805;28;20540;-77
2022/11/24 08:18:33;;;;;;;13.63;7.85;;;;;;;7.39;60.16;93138.03;5075959;28;20492;-76
2022/11/24 08:21:00;;;;;;;10.05;6.80;;;;;;;7.36;60.15;93149.22;5079051;28;20052;-76
2022/11/24 08:23:25;;;;;;;12.38;8.20;;;;;;;7.62;60.27;93179.19;5078510;28;20028;-76
2022/11/24 08:25:51;;;;;;;15.20;7.38;;;;;;;7.08;60.87;93151.34;5079379;28;20086;-75
2022/11/24 08:28:17;;;;;;;13.32;7.28;;;;;;;6.96;61.33;93158.28;5077987;28;20039;-76
2022/11/24 08:30:42;;;;;;;14.27;7.85;;;;;;;6.83;62.06;93147.53;5075545;28;20055;-75
2022/11/24 08:33:07;;;;;;;10.27;7.03;;;;;;;6.93;61.75;93178.19;5070555;28;20111;-75
2022/11/24 08:35:36;;;;;;;10.75;6.68;;;;;;;6.73;62.86;93179.50;5074939;28;20078;-76
2022/11/24 08:38:03;;;;;;;17.70;8.18;;;;;;;6.39;63.06;93131.78;5076987;28;20033;-75
2022/11/24 08:40:28;;;;;;;12.80;6.97;;;;;;;6.60;63.02;93200.75;5074686;28;20036;-76
2022/11/24 08:43:00;;;;;;;8.50;5.68;;;;;;;6.46;63.92;93200.78;5082056;28;20040;-77
2022/11/24 08:45:27;;;;;;;11.38;6.20;;;;;;;6.20;63.87;93170.81;5075863;28;20467;-76
2022/11/24 08:47:53;;;;;;;13.98;6.45;;;;;;;6.28;64.51;93197.28;5073079;28;20020;-75
2022/11/24 08:50:19;;;;;;;10.07;7.82;;;;;;;6.27;65.27;93221.31;5074995;28;20619;-76
2022/11/24 08:52:45;;;;;;;13.77;7.28;;;;;;;6.27;65.32;93223.97;5075613;28;20137;-76
2022/11/24 08:55:10;;;;;;;10.13;6.32;;;;;;;5.93;66.32;93227.09;5075050;28;20502;-76
2022/11/24 08:57:36;;;;;;;12.70;6.38;;;;;;;5.66;67.20;93204.19;5075148;28;20024;-75
2022/11/24 09:00:03;;;;;;;12.65;7.03;;;;;;;5.67;67.11;93216.31;5072354;28;20521;-77
2022/11/24 09:02:28;;;;;;;10.20;7.00;;;;;;;5.29;68.32;93209.72;5071609;28;20032;-75
2022/11/24 09:04:54;;;;;;;8.70;6.15;;;;;;;4.97;70.42;93210.59;5069653;28;20096;-76
2022/11/24 09:07:19;;;;;;;8.43;5.93;;;;;;;5.11;70.01;93229.84;5068661;28;20212;-75
2022/11/24 09:09:45;;;;;;;7.45;4.72;;;;;;;4.94;70.32;93224.38;5072584;28;20926;-75
2022/11/24 09:12:10;;;;;;;6.78;4.20;;;;;;;5.02;69.97;93242.91;5070562;28;20041;-75
2022/11/24 09:14:35;;;;;;;4.20;3.60;;;;;;;4.88;70.59;93233.44;5072223;28;20028;-75
2022/11/24 09:17:01;;;;;;;5.70;4.35;;;;;;;4.85;70.48;93221.59;5073371;28;20513;-76
2022/11/24 09:19:26;;;;;;;4.72;3.15;;;;;;;4.65;69.80;93193.78;5075033;28;20031;-75
2022/11/24 09:21:51;;;;;;;4.45;2.97;;;;;;;5.10;68.17;93228.25;5076595;28;20236;-76
2022/11/24 09:24:17;;;;;;;5.47;3.67;;;;;;;5.39;67.22;93230.59;5074808;28;20032;-76
2022/11/24 09:26:42;;;;;;;6.32;3.72;;;;;;;5.18;66.04;93219.69;5075646;28;20619;-76
2022/11/24 09:29:08;;;;;;;4.65;3.28;;;;;;;5.52;65.08;93238.53;5075777;28;20113;-77
2022/11/24 09:31:36;;;;;;;4.82;2.85;;;;;;;5.09;64.00;93216.94;5073151;28;20040;-76
2022/11/24 09:34:03;;;;;;;5.68;2.63;;;;;;;5.08;64.85;93247.03;5072831;28;20032;-75
2022/11/24 09:36:30;;;;;;;2.55;1.98;;;;;;;4.78;65.21;93237.03;5074022;28;20502;-76
2022/11/24 09:38:56;;;;;;;1.95;1.50;;;;;;;4.67;64.59;93249.59;5075517;28;20336;-76
2022/11/24 09:41:30;;;;;;;2.88;1.88;;;;;;;4.72;65.21;93253.19;5069932;28;20365;-76
2022/11/24 09:44:34;;;;;;;2.38;1.55;;;;;;;4.72;65.33;93254.00;5070638;28;20495;-74
2022/11/24 09:47:21;;;;;;;2.08;1.73;;;;;;;4.73;64.61;93250.28;5071356;28;20042;-75
2022/11/24 09:49:49;;;;;;;4.93;3.63;;;;;;;4.86;64.05;93251.38;5071484;28;20052;-74
2022/11/24 09:52:21;;;;;;;3.33;2.70;;;;;;;5.00;62.72;93247.69;5071546;28;20043;-76
2022/11/24 09:54:54;;;;;;;2.40;1.55;;;;;;;4.88;62.59;93257.94;5075535;28;20084;-76
2022/11/24 09:57:23;;;;;;;1.88;1.67;;;;;;;4.86;63.03;93260.06;5074747;28;20060;-77
2022/11/24 09:59:48;;;;;;;1.30;1.20;;;;;;;4.84;63.08;93241.16;5073118;28;20649;-76
2022/11/24 10:02:14;;;;;;;1.70;1.55;;;;;;;4.91;62.08;93253.91;5072101;28;20028;-76
2022/11/24 10:04:43;;;;;;;5.57;1.77;;;;;;;4.86;63.08;93249.53;5073436;28;20043;-77
2022/11/24 10:07:29;;;;;;;1.58;1.30;;;;;;;5.02;62.39;93245.56;5073075;28;20062;-75
2022/11/24 10:10:16;;;;;;;1.95;1.60;;;;;;;4.97;62.31;93258.81;5075063;28;20515;-76
2022/11/24 10:13:11;;;;;;;5.45;1.20;;;;;;;5.04;62.34;93251.28;5073890;28;20040;-76
2022/11/24 10:16:01;;;;;;;5.63;3.70;;;;;;;5.02;62.80;93258.72;5073316;28;20020;-77
2022/11/24 10:18:49;;;;;;;2.83;2.63;;;;;;;5.06;62.22;93249.16;5074720;28;20080;-75
2022/11/24 10:21:23;;;;;;;2.65;2.25;;;;;;;4.92;62.25;93266.03;5068659;28;20044;-75
2022/11/24 10:24:15;;;;;;;1.85;1.65;;;;;;;4.61;62.45;93223.63;5070023;28;20137;-76
2022/11/24 10:26:50;;;;;;;3.53;2.10;;;;;;;4.64;62.97;93273.09;5071520;28;20400;-76
2022/11/24 10:29:38;;;;;;;4.72;1.38;;;;;;;4.56;62.31;93239.50;5074789;28;20033;-75
2022/11/24 10:32:11;;;;;;;3.45;2.58;;;;;;;4.72;62.73;93269.78;5073054;28;20024;-76
2022/11/24 10:34:41;;;;;;;4.90;1.80;;;;;;;4.59;62.91;93244.22;5072372;28;20055;-76
2022/11/24 10:37:09;;;;;;;3.17;2.10;;;;;;;4.78;62.57;93259.97;5074430;28;20416;-76
2022/11/24 10:39:45;;;;;;;9.90;5.18;;;;;;;4.79;62.11;93264.94;5073240;28;20032;-76
2022/11/24 10:42:41;;;;;;;4.68;1.95;;;;;;;4.54;61.88;93226.66;5080173;28;20035;-74
2022/11/24 10:45:13;;;;;;;1.92;1.80;;;;;;;4.61;61.28;93226.25;5061484;28;20052;-76
2022/11/24 10:47:39;;;;;;;2.60;2.40;;;;;;;4.72;61.44;93240.81;5069942;28;20077;-77
2022/11/24 10:50:14;;;;;;;3.38;2.28;;;;;;;4.80;61.43;93242.78;5070385;28;20073;-77
2022/11/24 10:52:59;;;;;;;3.00;1.97;;;;;;;4.76;61.73;93249.69;5073452;28;20488;-77
2022/11/24 10:55:24;;;;;;;2.35;1.80;;;;;;;4.78;61.77;93255.47;5071494;28;20327;-75
2022/11/24 10:57:50;;;;;;;2.00;1.80;;;;;;;4.96;61.80;93249.34;5072749;28;20087;-75
2022/11/24 11:00:18;;;;;;;1.92;1.75;;;;;;;4.95;61.82;93247.78;5072772;28;20036;-76
2022/11/24 11:02:44;;;;;;;2.85;1.95;;;;;;;4.96;62.67;93238.81;5073331;28;20511;-75
2022/11/24 11:05:25;;;;;;;3.10;2.08;;;;;;;4.88;62.61;93254.50;5072606;28;20040;-76
2022/11/24 11:08:13;;;;;;;3.30;1.70;;;;;;;4.94;63.11;93251.47;5079691;28;20068;-75
2022/11/24 11:10:43;;;;;;;2.25;2.00;;;;;;;4.91;63.76;93228.34;5059508;28;20044;-75
2022/11/24 11:13:23;;;;;;;2.10;1.83;;;;;;;4.65;64.23;93238.56;5070578;28;20154;-75
2022/11/24 11:15:49;;;;;;;3.08;2.10;;;;;;;4.84;64.80;93266.72;5072851;28;20591;-76
2022/11/24 11:18:16;;;;;;;3.85;3.10;;;;;;;4.83;64.75;93255.38;5073590;28;20503;-76
2022/11/24 11:20:54;;;;;;;3.30;3.00;;;;;;;4.79;64.41;93254.41;5074050;28;20341;-76
2022/11/24 11:23:34;;;;;;;3.60;2.88;;;;;;;4.83;63.70;93249.34;5071765;28;20041;-76
2022/11/24 11:26:31;;;;;;;3.20;2.35;;;;;;;4.92;61.42;93256.28;5074294;28;20101;-76
2022/11/24 11:29:02;;;;;;;4.30;2.63;;;;;;;4.75;61.61;93263.19;5073312;28;20113;-75
2022/11/24 11:31:30;;;;;;;5.15;3.13;;;;;;;4.68;62.08;93264.34;5074536;28;20048;-76
2022/11/24 11:34:09;;;;;;;5.18;3.17;;;;;;;4.50;63.65;93261.75;5072662;28;20376;-75
2022/11/24 11:36:42;;;;;;;3.05;2.53;;;;;;;4.48;63.31;93275.19;5071532;28;20024;-75
2022/11/24 11:39:36;;;;;;;4.57;3.25;;;;;;;4.44;63.45;93268.16;5087886;28;20031;-75
2022/11/24 11:42:17;;;;;;;4.78;3.38;;;;;;;4.39;62.91;93268.22;5072916;28;20048;-75
2022/11/24 11:44:51;;;;;;;4.22;3.10;;;;;;;4.43;63.10;93269.22;5071653;28;20529;-76
2022/11/24 11:47:28;;;;;;;4.75;2.95;;;;;;;4.35;63.34;93275.16;5080692;28;20044;-75
2022/11/24 11:49:54;;;;;;;5.10;3.55;;;;;;;4.17;62.75;93237.22;5072189;28;20028;-75